Olympia Regional Airport
KOLM : rendu visible

Aérodrome :











RETROUVEZ-NOUS SUR...

 
LOGIN :

S'inscrire | Disclaimer

   EN    FR    IT 

 









Légende :    VFR   VFR Marginal   IFR   IFR Intensif   IFR Très Intensif
Visi : 
Plafond : 
>= 8 km
>= 3000ft
5 à 8 km
1000 à 3000 ft
1500m à 5 km
500 à 1000 ft
800 à 1500m
200 à 500 ft
< 800m
< 200 ft
Symboles :   Orages  Brouillard  Fortes neiges  Fortes précipitations  Vent > 20 kt






- Altitude de l'aérodrome : 209 ft
- Code IATA : OLM


KOLM - Olympia Regional

DERNIER METAR :
  • 190201Z 20005KT 10SM SCT019 BKN030 OVC037 09/06 A3023 RMK AO2 T00890056

METARs EXPIRÉS :
  • 190054Z 20006KT 10SM SCT035 BKN046 OVC055 09/06 A3021 RMK AO2 SLP231 T00890056
  • 190016Z 20009KT 10SM SCT021 BKN037 09/06 A3021 RMK AO2 T00890056
  • 182354Z 19011KT 10SM BKN020 09/06 A3020 RMK AO2 RAE18 SLP228 P0000 60000 T00940056 10094 20072 51014

TAF KOLM
Valide du 19 à 00h jusqu'au 20 à 00h UTC


182329Z 1900/1924 20011KT P6SM OVC025
FM190500 19004KT 4SM BR SCT010 OVC025
FM191600 20005KT 3SM -RA BR SCT010 OVC025



MET'MAP, la Météo Aéronautique d'un coup d'oeil ! - Copyright ORBIFLY Décembre 2007 - Disclaimer

ORBIFLY MET'MAP TEAM :

Programmation & Développement : Alexandra Zaïnal
Sur une idée originale de : Baudouin d'Aumeries
Assistance à la programmation : Marc-Olivier Méhu
Soutien technique & logistique : Manuel Goepfert

Contact : metmap@orbifly.com




SOURCES & CREDITS :

   NOAA       Earth
Advisory